Latest Weather Observations for Warburto Point

IDS60801

Issued at 9:01 am CST Wednesday 1 June 2016 (issued every 30 minutes, with the page automatically refreshed every 10 minutes)

About weather observations | Map of weather stations | Latest weather observations for SA | Other Formats
Station Details ID: 022053 Name: WARBURTO POINT Lat: -34.00 Lon: 137.53 Height: 1.0 m
Data from the previous 72 hours. | See also: Recent months for locations in South Australia
Date/Time
CST
Temp
°C
App
Temp
°C
Dew
Point
Rel
Hum
%
Delta-T
°C
Wind Press
QNH
hPa
Press
MSL
hPa
Rain
since 9 am
mm
Dir
 
Spd
km/h
Gust
km/h
Spd
kts
Gust
kts
01/09:00am - - - - - NE 13 17 7 9 - - -
01/08:30am - - - - - NE 15 19 8 10 - - -
01/08:00am - - - - - NE 15 17 8 9 - - -
01/07:30am - - - - - NE 15 17 8 9 - - -
01/07:00am - - - - - NE 15 17 8 9 - - -
01/06:30am - - - - - NE 17 19 9 10 - - -
01/06:00am - - - - - NE 17 22 9 12 - - -
01/05:30am - - - - - NE 17 19 9 10 - - -
01/05:00am - - - - - NE 17 19 9 10 - - -
01/04:30am - - - - - ENE 17 19 9 10 - - -
01/04:00am - - - - - ENE 13 15 7 8 - - -
01/03:30am - - - - - ENE 15 17 8 9 - - -
01/03:00am - - - - - ENE 15 17 8 9 - - -
01/02:30am - - - - - ENE 9 13 5 7 - - -
01/02:00am - - - - - ENE 15 19 8 10 - - -
01/01:30am - - - - - ENE 15 17 8 9 - - -
01/01:00am - - - - - E 15 17 8 9 - - -
01/12:30am - - - - - ESE 13 15 7 8 - - -
01/12:00am - - - - - E 13 17 7 9 - - -
 
Date/Time
CST
Temp
°C
App
Temp
°C
Dew
Point
Rel
Hum
%
Delta-T
°C
Wind Press
QNH
hPa
Press
MSL
hPa
Rain
since 9 am
mm
Dir
 
Spd
km/h
Gust
km/h
Spd
kts
Gust
kts
31/11:30pm - - - - - E 13 17 7 9 - - -
31/11:00pm - - - - - ESE 13 15 7 8 - - -
31/10:30pm - - - - - E 13 15 7 8 - - -
31/10:00pm - - - - - ENE 13 17 7 9 - - -
31/09:30pm - - - - - ENE 15 19 8 10 - - -
31/09:00pm - - - - - ESE 13 15 7 8 - - -
31/08:30pm - - - - - E 9 11 5 6 - - -
31/08:00pm - - - - - E 13 17 7 9 - - -
31/07:30pm - - - - - NNE 19 30 10 16 - - -
31/07:00pm - - - - - NE 11 15 6 8 - - -
31/06:30pm - - - - - NNE 15 19 8 10 - - -
31/06:00pm - - - - - NE 15 19 8 10 - - -
31/05:30pm - - - - - NE 17 22 9 12 - - -
31/05:00pm - - - - - NNE 19 26 10 14 - - -
31/04:30pm - - - - - NNE 20 28 11 15 - - -
31/04:00pm - - - - - NNE 20 26 11 14 - - -
31/03:30pm - - - - - NNE 19 26 10 14 - - -
31/03:00pm - - - - - NNE 19 24 10 13 - - -
31/02:30pm - - - - - N 20 26 11 14 - - -
31/02:00pm - - - - - NNE 19 26 10 14 - - -
31/01:30pm - - - - - N 22 28 12 15 - - -
31/01:00pm - - - - - N 26 32 14 17 - - -
31/12:30pm - - - - - N 28 33 15 18 - - -
31/12:00pm - - - - - N 28 33 15 18 - - -
31/11:30am - - - - - N 32 35 17 19 - - -
31/11:00am - - - - - N 30 37 16 20 - - -
31/10:30am - - - - - N 30 37 16 20 - - -
31/10:00am - - - - - NNE 24 30 13 16 - - -
31/09:30am - - - - - NNE 20 28 11 15 - - -
31/09:00am - - - - - NE 20 26 11 14 - - -
31/08:30am - - - - - NNE 17 24 9 13 - - -
31/08:00am - - - - - NE 17 24 9 13 - - -
31/07:30am - - - - - NE 17 20 9 11 - - -
31/07:00am - - - - - NNE 17 24 9 13 - - -
31/06:30am - - - - - NE 13 19 7 10 - - -
31/06:00am - - - - - N 26 30 14 16 - - -
31/05:30am - - - - - N 28 33 15 18 - - -
31/05:00am - - - - - N 32 33 17 18 - - -
31/04:30am - - - - - N 28 33 15 18 - - -
31/04:00am - - - - - NE 17 28 9 15 - - -
31/03:30am - - - - - NNE 17 26 9 14 - - -
31/03:00am - - - - - NNE 19 24 10 13 - - -
31/02:30am - - - - - NE 20 28 11 15 - - -
31/02:00am - - - - - NE 13 17 7 9 - - -
31/01:30am - - - - - NE 13 17 7 9 - - -
31/01:00am - - - - - NNE 19 28 10 15 - - -
31/12:30am - - - - - NNE 24 28 13 15 - - -
31/12:00am - - - - - NNE 24 28 13 15 - - -
 
Date/Time
CST
Temp
°C
App
Temp
°C
Dew
Point
Rel
Hum
%
Delta-T
°C
Wind Press
QNH
hPa
Press
MSL
hPa
Rain
since 9 am
mm
Dir
 
Spd
km/h
Gust
km/h
Spd
kts
Gust
kts
30/11:30pm - - - - - NNE 26 32 14 17 - - -
30/11:00pm - - - - - NNE 30 33 16 18 - - -
30/10:30pm - - - - - NNE 26 33 14 18 - - -
30/10:00pm - - - - - NE 24 30 13 16 - - -
30/09:30pm - - - - - NE 20 28 11 15 - - -
30/09:00pm - - - - - NE 20 28 11 15 - - -
30/08:30pm - - - - - NE 26 33 14 18 - - -
30/08:00pm - - - - - NNE 17 20 9 11 - - -
30/07:30pm - - - - - N 28 32 15 17 - - -
30/07:00pm - - - - - NNE 24 30 13 16 - - -
30/06:30pm - - - - - NNE 22 26 12 14 - - -
30/06:00pm - - - - - NE 20 26 11 14 - - -
30/05:30pm - - - - - NE 20 26 11 14 - - -
30/05:00pm - - - - - NNE 19 26 10 14 - - -
30/04:30pm - - - - - NE 13 17 7 9 - - -
30/04:00pm - - - - - NE 15 19 8 10 - - -
30/03:30pm - - - - - NNE 19 24 10 13 - - -
30/03:00pm - - - - - NNE 19 24 10 13 - - -
30/02:30pm - - - - - NNE 17 22 9 12 - - -
30/02:00pm - - - - - NNE 20 26 11 14 - - -
30/01:30pm - - - - - NNE 22 30 12 16 - - -
30/01:00pm - - - - - N 28 33 15 18 - - -
30/12:30pm - - - - - N 32 37 17 20 - - -
30/12:00pm - - - - - N 33 39 18 21 - - -
30/11:30am - - - - - N 32 39 17 21 - - -
30/11:00am - - - - - N 35 43 19 23 - - -
30/10:30am - - - - - N 37 46 20 25 - - -
30/10:00am - - - - - N 39 48 21 26 - - -
30/09:30am - - - - - N 39 48 21 26 - - -
30/09:00am - - - - - N 41 50 22 27 - - -
30/08:30am - - - - - N 43 54 23 29 - - -
30/08:00am - - - - - N 44 54 24 29 - - -
30/07:48am - - - - - NNE 33 54 18 29 - - -
30/07:30am - - - - - N 35 46 19 25 - - -
30/07:00am - - - - - NNE 32 41 17 22 - - -
30/06:30am - - - - - NE 24 28 13 15 - - -
30/06:00am - - - - - NE 24 30 13 16 - - -
30/05:30am - - - - - NNE 28 37 15 20 - - -
30/05:29am - - - - - N 30 37 16 20 - - -
30/05:00am - - - - - N 28 44 15 24 - - -
30/04:59am - - - - - N 26 44 14 24 - - -
30/04:30am - - - - - NE 22 28 12 15 - - -
30/04:00am - - - - - NNE 20 26 11 14 - - -
30/03:30am - - - - - NE 20 26 11 14 - - -
30/03:00am - - - - - NE 22 28 12 15 - - -
30/02:30am - - - - - NE 24 30 13 16 - - -
30/02:00am - - - - - NE 24 30 13 16 - - -
30/01:30am - - - - - NE 20 26 11 14 - - -
30/01:00am - - - - - NNE 20 28 11 15 - - -
30/12:30am - - - - - ENE 15 17 8 9 - - -
30/12:00am - - - - - ENE 17 20 9 11 - - -
 
Date/Time
CST
Temp
°C
App
Temp
°C
Dew
Point
Rel
Hum
%
Delta-T
°C
Wind Press
QNH
hPa
Press
MSL
hPa
Rain
since 9 am
mm
Dir
 
Spd
km/h
Gust
km/h
Spd
kts
Gust
kts
29/11:30pm - - - - - ENE 13 17 7 9 - - -
29/11:00pm - - - - - NE 15 19 8 10 - - -
29/10:30pm - - - - - NE 15 19 8 10 - - -
29/10:00pm - - - - - NE 20 26 11 14 - - -
29/09:30pm - - - - - NE 17 20 9 11 - - -
29/09:00pm - - - - - NE 17 19 9 10 - - -
29/08:30pm - - - - - NE 17 20 9 11 - - -
29/08:00pm - - - - - NE 19 24 10 13 - - -
29/07:30pm - - - - - NE 19 24 10 13 - - -
29/07:00pm - - - - - ENE 19 20 10 11 - - -
29/06:30pm - - - - - NE 19 22 10 12 - - -
29/06:00pm - - - - - NNE 24 30 13 16 - - -
29/05:30pm - - - - - NNE 26 32 14 17 - - -
29/05:00pm - - - - - NNE 30 37 16 20 - - -
29/04:30pm - - - - - NNE 30 35 16 19 - - -
29/04:00pm - - - - - NNE 28 33 15 18 - - -
29/03:30pm - - - - - NNE 28 32 15 17 - - -
29/03:00pm - - - - - NNE 28 35 15 19 - - -
29/02:30pm - - - - - NNE 28 33 15 18 - - -
29/02:00pm - - - - - NNE 30 35 16 19 - - -
29/01:30pm - - - - - NNE 30 35 16 19 - - -
29/01:00pm - - - - - N 28 35 15 19 - - -
29/12:30pm - - - - - N 30 35 16 19 - - -
29/12:00pm - - - - - N 33 39 18 21 - - -
29/11:30am - - - - - N 32 39 17 21 - - -
29/11:00am - - - - - N 32 39 17 21 - - -
29/10:30am - - - - - NNE 26 32 14 17 - - -
29/10:00am - - - - - NE 20 28 11 15 - - -
29/09:30am - - - - - NE 20 28 11 15 - - -

Other Formats:

Comma delimited format used in spreadsheet applications
http://www.bom.gov.au/fwo/IDS60801/IDS60801.94666.axf

JavaScript Object Notation format (JSON) in row-major order
http://www.bom.gov.au/fwo/IDS60801/IDS60801.94666.json